PWSweather.com
Personal Weather Stations
Station Observations

AwhituWaiuku, CA 268400

Lat: -37.058, Lon: -174.6346

Elevation: 250

Station Type: Personal

http://www.weather-display.com/windy/gb/grahamsbeach.htm

Latest ConditionsUpdated 10:30:02 PM GMT-12:48 Wednesday, May 4, 2016
Currently Today's Max Today's Min Today's Average
Temperature 64.8°F18.2°C 67.8°F19.9°C 60.5°F15.8°C 64.1°F17.8°C
Dew Point 63.3°F17.4°C 63.6°F17.6°C 57.9°F14.4°C 60.6°F15.9°C
Winds 13.8 mph W22.2 kmh W 23.0 mph NW37.0 kmh NW - 8.5 mph 13.7 kmh
Wind Gusts 17.3 mph27.8 kmh 28.8 mph46.3 kmh - -
Humidity 95% 95% 79% 88%
Pressure 30.21 in1023.0 mb 30.21 in1023.0 mb 30.16 in1021.3 mb -
Precipitation - 0.01 in0.3 mm - -
Hour Temp Dew Point Humidity Winds Wind Gusts Pressure Precip Precip Rate Daily Precip Total
10:30 PM 64.8°F18.2°C 63.3°F17.4°C 95% 13.8 mph W22.2 kmh W 17.3 mph27.8 kmh 30.21 in1023.0 mb - 0.00 in0.0 mm 0.01 in0.3 mm
10:00 PM 65.4°F18.6°C 63.6°F17.6°C 94% 11.5 mph WNW18.5 kmh WNW 13.8 mph22.2 kmh 30.21 in1023.0 mb - 0.00 in0.0 mm 0.01 in0.3 mm
09:30 PM 65.7°F18.7°C 63.6°F17.6°C 93% 12.7 mph NW20.4 kmh NW 16.1 mph25.9 kmh 30.21 in1023.0 mb - 0.00 in0.0 mm 0.01 in0.3 mm
09:00 PM 65.6°F18.7°C 62.9°F17.2°C 91% 15.0 mph WNW24.1 kmh WNW 19.6 mph31.5 kmh 30.21 in1023.0 mb - 0.00 in0.0 mm 0.01 in0.3 mm
08:30 PM 65.6°F18.7°C 62.6°F17.0°C 90% 18.4 mph WNW29.6 kmh WNW 20.7 mph33.3 kmh 30.20 in1022.7 mb - 0.00 in0.0 mm 0.01 in0.3 mm
07:30 PM 65.4°F18.6°C 62.1°F16.7°C 89% 16.1 mph WNW25.9 kmh WNW 18.4 mph29.6 kmh 30.20 in1022.7 mb - 0.00 in0.0 mm 0.01 in0.3 mm
07:00 PM 65.0°F18.3°C 62.0°F16.7°C 90% 12.7 mph WNW20.4 kmh WNW 17.3 mph27.8 kmh 30.19 in1022.4 mb - 0.00 in0.0 mm 0.01 in0.3 mm
06:30 PM 64.9°F18.3°C 61.9°F16.6°C 90% 18.4 mph WNW29.6 kmh WNW 24.2 mph38.9 kmh 30.18 in1022.0 mb - 0.00 in0.0 mm 0.01 in0.3 mm
06:00 PM 64.6°F18.1°C 61.9°F16.6°C 91% 12.7 mph NW20.4 kmh NW 15.0 mph24.1 kmh 30.18 in1022.0 mb - 0.00 in0.0 mm 0.01 in0.3 mm
05:30 PM 64.6°F18.1°C 61.6°F16.4°C 90% 17.3 mph NW27.8 kmh NW 19.6 mph31.5 kmh 30.18 in1022.0 mb - 0.00 in0.0 mm 0.01 in0.3 mm
05:00 PM 64.9°F18.3°C 61.3°F16.3°C 88% 13.8 mph WNW22.2 kmh WNW 19.6 mph31.5 kmh 30.17 in1021.7 mb - 0.00 in0.0 mm 0.01 in0.3 mm
04:30 PM 65.1°F18.4°C 61.1°F16.2°C 87% 17.3 mph WNW27.8 kmh WNW 21.9 mph35.2 kmh 30.17 in1021.7 mb - 0.00 in0.0 mm 0.01 in0.3 mm
04:00 PM 67.7°F19.8°C 61.0°F16.1°C 79% 16.1 mph WNW25.9 kmh WNW 20.7 mph33.3 kmh 30.17 in1021.7 mb - 0.00 in0.0 mm 0.01 in0.3 mm
03:30 PM 67.6°F19.8°C 61.6°F16.4°C 81% 17.3 mph NW27.8 kmh NW 19.6 mph31.5 kmh 30.16 in1021.3 mb - 0.00 in0.0 mm 0.01 in0.3 mm
03:00 PM 66.7°F19.3°C 61.7°F16.5°C 84% 17.3 mph WNW27.8 kmh WNW 21.9 mph35.2 kmh 30.17 in1021.7 mb - 0.00 in0.0 mm 0.01 in0.3 mm
02:30 PM 67.8°F19.9°C 61.1°F16.2°C 79% 23.0 mph NW37.0 kmh NW 28.8 mph46.3 kmh 30.16 in1021.3 mb - 0.00 in0.0 mm 0.01 in0.3 mm
02:00 PM 67.0°F19.4°C 62.3°F16.8°C 85% 12.7 mph WNW20.4 kmh WNW 16.1 mph25.9 kmh 30.16 in1021.3 mb - 0.00 in0.0 mm 0.01 in0.3 mm
01:30 PM 66.1°F18.9°C 61.8°F16.6°C 86% 5.8 mph N9.3 kmh N 8.1 mph13.0 kmh 30.17 in1021.7 mb - 0.00 in0.0 mm 0.01 in0.3 mm
01:00 PM 66.0°F18.9°C 61.7°F16.5°C 86% 4.6 mph N7.4 kmh N 8.1 mph13.0 kmh 30.18 in1022.0 mb - 0.00 in0.0 mm 0.01 in0.3 mm
12:30 PM 65.7°F18.7°C 61.4°F16.3°C 86% 5.8 mph NW9.3 kmh NW 8.1 mph13.0 kmh 30.18 in1022.0 mb - 0.00 in0.0 mm 0.01 in0.3 mm
12:00 PM 66.6°F19.2°C 61.6°F16.4°C 84% 12.7 mph WNW20.4 kmh WNW 17.3 mph27.8 kmh 30.19 in1022.4 mb - 0.01 in0.3 mm 0.01 in0.3 mm
11:30 AM 65.7°F18.7°C 60.8°F16.0°C 84% 9.2 mph NW14.8 kmh NW 11.5 mph18.5 kmh 30.20 in1022.7 mb - 0.00 in0.0 mm 0.00 in0.0 mm
11:00 AM 66.2°F19.0°C 60.5°F15.8°C 82% 4.6 mph NW7.4 kmh NW 10.4 mph16.7 kmh 30.21 in1023.0 mb - 0.00 in0.0 mm 0.00 in0.0 mm
10:30 AM 65.8°F18.8°C 60.5°F15.8°C 83% 2.3 mph N3.7 kmh N 3.5 mph5.6 kmh 30.21 in1023.0 mb - 0.00 in0.0 mm 0.00 in0.0 mm
10:00 AM 65.3°F18.5°C 60.3°F15.7°C 84% 3.5 mph N5.6 kmh N 4.6 mph7.4 kmh 30.21 in1023.0 mb - 0.00 in0.0 mm 0.00 in0.0 mm
09:30 AM 64.4°F18.0°C 59.8°F15.4°C 85% 4.6 mph NNE7.4 kmh NNE 8.1 mph13.0 kmh 30.21 in1023.0 mb - 0.00 in0.0 mm 0.00 in0.0 mm
09:00 AM 63.2°F17.3°C 59.3°F15.2°C 87% Calm Calm 3.5 mph5.6 kmh 30.21 in1023.0 mb - 0.00 in0.0 mm 0.00 in0.0 mm
08:30 AM 62.6°F17.0°C 58.7°F14.8°C 87% 1.2 mph NNE1.9 kmh NNE 3.5 mph5.6 kmh 30.21 in1023.0 mb - 0.00 in0.0 mm 0.00 in0.0 mm
08:00 AM 61.9°F16.6°C 58.6°F14.8°C 89% 2.3 mph NNE3.7 kmh NNE 8.1 mph13.0 kmh 30.20 in1022.7 mb - 0.00 in0.0 mm 0.00 in0.0 mm
07:30 AM 60.9°F16.1°C 57.9°F14.4°C 90% 1.2 mph NE1.9 kmh NE 3.5 mph5.6 kmh 30.19 in1022.4 mb - 0.00 in0.0 mm 0.00 in0.0 mm
07:00 AM 60.9°F16.1°C 58.3°F14.6°C 91% Calm Calm -- 30.18 in1022.0 mb - 0.00 in0.0 mm 0.00 in0.0 mm
06:30 AM 60.9°F16.1°C 58.2°F14.6°C 91% Calm Calm -- 30.18 in1022.0 mb - 0.00 in0.0 mm 0.00 in0.0 mm
06:00 AM 60.7°F15.9°C 58.1°F14.5°C 91% 2.3 mph NE3.7 kmh NE 2.3 mph3.7 kmh 30.17 in1021.7 mb - 0.00 in0.0 mm 0.00 in0.0 mm
05:30 AM 60.5°F15.8°C 58.2°F14.6°C 92% 3.5 mph NE5.6 kmh NE 5.8 mph9.3 kmh 30.16 in1021.3 mb - 0.00 in0.0 mm 0.00 in0.0 mm
05:00 AM 60.9°F16.1°C 58.6°F14.8°C 92% 1.2 mph E1.9 kmh E 2.3 mph3.7 kmh 30.16 in1021.3 mb - 0.00 in0.0 mm 0.00 in0.0 mm
04:30 AM 61.3°F16.3°C 59.0°F15.0°C 92% 2.3 mph NE3.7 kmh NE 4.6 mph7.4 kmh 30.16 in1021.3 mb - 0.00 in0.0 mm 0.00 in0.0 mm
04:00 AM 61.6°F16.4°C 59.2°F15.1°C 92% 3.5 mph NE5.6 kmh NE 8.1 mph13.0 kmh 30.16 in1021.3 mb - 0.00 in0.0 mm 0.00 in0.0 mm
03:30 AM 61.8°F16.6°C 59.5°F15.3°C 92% 5.8 mph NNE9.3 kmh NNE 8.1 mph13.0 kmh 30.16 in1021.3 mb - 0.00 in0.0 mm 0.00 in0.0 mm
03:00 AM 62.0°F16.7°C 59.6°F15.3°C 92% 3.5 mph N5.6 kmh N 3.5 mph5.6 kmh 30.17 in1021.7 mb - 0.00 in0.0 mm 0.00 in0.0 mm
02:30 AM 62.0°F16.7°C 59.3°F15.2°C 91% 2.3 mph NNE3.7 kmh NNE 3.5 mph5.6 kmh 30.17 in1021.7 mb - 0.00 in0.0 mm 0.00 in0.0 mm
02:00 AM 62.1°F16.7°C 59.4°F15.2°C 91% 4.6 mph N7.4 kmh N 6.9 mph11.1 kmh 30.18 in1022.0 mb - 0.00 in0.0 mm 0.00 in0.0 mm
01:30 AM 62.5°F16.9°C 59.5°F15.3°C 90% 6.9 mph NNE11.1 kmh NNE 9.2 mph14.8 kmh 30.18 in1022.0 mb - 0.00 in0.0 mm 0.00 in0.0 mm
01:00 AM 62.8°F17.1°C 59.8°F15.4°C 90% 6.9 mph N11.1 kmh N 9.2 mph14.8 kmh 30.19 in1022.4 mb - 0.00 in0.0 mm 0.00 in0.0 mm
12:30 AM 63.1°F17.3°C 60.1°F15.6°C 90% 9.2 mph NNE14.8 kmh NNE 11.5 mph18.5 kmh 30.18 in1022.0 mb - 0.00 in0.0 mm 0.00 in0.0 mm
12:00 AM 63.1°F17.3°C 60.1°F15.6°C 90% 6.9 mph N11.1 kmh N 11.5 mph18.5 kmh 30.18 in1022.0 mb - 0.00 in0.0 mm 0.00 in0.0 mm